Airfield :
LOGIN :

Register | Disclaimer

   EN    FR    IT 

 










Legend :    VFR   Marginal VFR   IFR   Intensive IFR   Very Intensive IFR
Visi :
Ceiling :
>= 8 km
>= 3000ft
5 to 8 km
1000 to 3000 ft
1500m to 5 km
500 to 1000 ft
800 to 1500m
200 to 500 ft
< 800m
< 200 ft
Symbols :   Thunderstorms  Fog  Heavy snow  Heavy precipitations  Wind > 20 kt
SIGMETs :     Misc.  Thunderstorms  Icing  Turbulence  Mountain Waves  Volcanic Ashes






- Airport Elevation : 279 ft
- IATA code : TGR


DAUK - Touggourt Sidi Mahdi

CURRENT METAR :
  • 100900Z 31013KT CAVOK 15/04 Q1021

EXPIRED METARs :
  • 100800Z 30012KT CAVOK 13/06 Q1021
  • 100700Z 29010KT CAVOK 12/05 Q1021

TAF TAF DAUK
Valid from the 10 at 09:00 until the 10 at 18:00 UTC


100800Z 1009/1018 30012KT CAVOK
PROB40
TEMPO 1009/1015 30015G25KT 4000 DRSA



MET'MAP, your aeronautical weather chart ! - Copyright ORBIFLY December 2007 - Disclaimer

ORBIFLY MET'MAP TEAM :

Programming & Development : Alexandra Zaïnal
Concept & original design : Baudouin d'Aumeries
Assistance for programming : Marc-Olivier Méhu
Technical & hardware support : Manuel Goepfert

Contact : metmap@orbifly.com




SOURCES & CREDITS :

   NOAA